This is the latest recevied weather packets stored in our database for station/object KJ4YLO. If no packets are shown the sender has not sent any weather packets the latest 10 day(s).
| Time | Temp. | Humidity | Pressure | Rain* | Wind** | Luminosity | Snow |
|---|---|---|---|---|---|---|---|
| 1777578577 | 22.78° C | 60% | 1011 hPa | 0 mm | - | 403 W/m² | - |
| 1777578272 | 23.33° C | 55% | 1011 hPa | 0 mm | - | 133 W/m² | - |
| 1777577968 | 22.78° C | 57% | 1011 hPa | 0 mm | - | 623 W/m² | - |
| 1777577663 | 22.22° C | 56% | 1011 hPa | 0 mm | - | 698 W/m² | - |
| 1777577361 | 22.22° C | 58% | 1011 hPa | 0 mm | - | 157 W/m² | - |
| 1777577056 | 22.78° C | 57% | 1011 hPa | 0 mm | - | 113 W/m² | - |
| 1777576754 | 23.33° C | 55% | 1011 hPa | 0 mm | - | 172 W/m² | - |
| 1777576452 | 23.33° C | 55% | 1011 hPa | 0 mm | - | 477 W/m² | - |
| 1777576149 | 23.89° C | 53% | 1011 hPa | 0 mm | - | 526 W/m² | - |
| 1777575844 | 25° C | 50% | 1011 hPa | 0 mm | - | 691 W/m² | - |
| 1777575542 | 24.44° C | 51% | 1011 hPa | 0 mm | - | 757 W/m² | - |
| 1777575237 | 24.44° C | 49% | 1011.3 hPa | 0 mm | - | 770 W/m² | - |
| 1777574933 | 23.33° C | 53% | 1011.3 hPa | 0 mm | - | 801 W/m² | - |
| 1777574630 | 22.78° C | 60% | 1011 hPa | 0 mm | - | 740 W/m² | - |
| 1777574327 | 22.22° C | 64% | 1011.3 hPa | 0 mm | - | 659 W/m² | - |
| 1777574027 | 22.78° C | 67% | 1011.3 hPa | 0 mm | - | 486 W/m² | - |
| 1777573722 | 22.22° C | 63% | 1011.7 hPa | 0 mm | - | 715 W/m² | - |
| 1777573418 | 21.67° C | 65% | 1011.7 hPa | 0 mm | - | 647 W/m² | - |
| 1777573114 | 22.22° C | 63% | 1011.7 hPa | 0 mm | - | 209 W/m² | - |
| 1777572811 | 22.22° C | 62% | 1011.7 hPa | 0 mm | - | 804 W/m² | - |
| 1777572507 | 21.67° C | 64% | 1012 hPa | 0 mm | - | 762 W/m² | - |
| 1777572202 | 22.22° C | 64% | 1011.7 hPa | 0 mm | - | 641 W/m² | - |
| 1777571898 | 22.22° C | 64% | 1011.7 hPa | 0 mm | - | 721 W/m² | - |
| 1777571593 | 21.67° C | 67% | 1011.7 hPa | 0 mm | - | 255 W/m² | - |
| 1777571291 | 22.22° C | 67% | 1012 hPa | 0 mm | - | 678 W/m² | - |
* Rain latest hour (hover to see other rain measurements)
** Current wind speed in m/s (hover to see current wind gust speed)